sensor_id;sensor_type;location;lat;lon;timestamp;P1;durP1;ratioP1;P2;durP2;ratioP2
73557;SDS011;61829;53.286;10.434;2022-08-25T00:01:19;6.00;;;3.55;;
73557;SDS011;61829;53.286;10.434;2022-08-25T00:03:47;6.10;;;3.50;;
73557;SDS011;61829;53.286;10.434;2022-08-25T00:06:14;6.53;;;3.63;;
73557;SDS011;61829;53.286;10.434;2022-08-25T00:08:40;7.65;;;3.67;;
73557;SDS011;61829;53.286;10.434;2022-08-25T00:11:11;6.80;;;3.45;;
73557;SDS011;61829;53.286;10.434;2022-08-25T00:13:41;5.80;;;3.70;;
73557;SDS011;61829;53.286;10.434;2022-08-25T00:16:14;6.53;;;4.10;;
73557;SDS011;61829;53.286;10.434;2022-08-25T00:18:41;6.65;;;3.67;;
73557;SDS011;61829;53.286;10.434;2022-08-25T00:21:12;6.50;;;3.92;;
73557;SDS011;61829;53.286;10.434;2022-08-25T00:23:40;7.45;;;3.80;;
73557;SDS011;61829;53.286;10.434;2022-08-25T00:26:07;6.40;;;4.47;;
73557;SDS011;61829;53.286;10.434;2022-08-25T00:28:33;6.10;;;3.97;;
73557;SDS011;61829;53.286;10.434;2022-08-25T00:30:59;10.43;;;4.40;;
73557;SDS011;61829;53.286;10.434;2022-08-25T00:33:27;6.65;;;4.20;;
73557;SDS011;61829;53.286;10.434;2022-08-25T00:35:55;6.38;;;4.03;;
73557;SDS011;61829;53.286;10.434;2022-08-25T00:38:23;6.85;;;4.13;;
73557;SDS011;61829;53.286;10.434;2022-08-25T00:40:49;7.82;;;3.85;;
73557;SDS011;61829;53.286;10.434;2022-08-25T00:46:07;7.30;;;4.15;;
73557;SDS011;61829;53.286;10.434;2022-08-25T00:48:34;6.28;;;3.83;;
73557;SDS011;61829;53.286;10.434;2022-08-25T00:51:01;8.13;;;3.83;;
73557;SDS011;61829;53.286;10.434;2022-08-25T00:53:29;7.00;;;4.30;;
73557;SDS011;61829;53.286;10.434;2022-08-25T00:55:55;5.03;;;3.97;;
73557;SDS011;61829;53.286;10.434;2022-08-25T00:58:24;5.88;;;4.05;;
73557;SDS011;61829;53.286;10.434;2022-08-25T01:00:53;6.20;;;4.00;;
73557;SDS011;61829;53.286;10.434;2022-08-25T01:03:22;8.00;;;5.10;;
73557;SDS011;61829;53.286;10.434;2022-08-25T01:05:50;5.35;;;3.78;;
73557;SDS011;61829;53.286;10.434;2022-08-25T01:08:17;10.18;;;4.05;;
73557;SDS011;61829;53.286;10.434;2022-08-25T01:10:47;5.82;;;4.18;;
73557;SDS011;61829;53.286;10.434;2022-08-25T01:13:18;9.48;;;4.63;;
73557;SDS011;61829;53.286;10.434;2022-08-25T01:15:49;5.95;;;4.20;;
73557;SDS011;61829;53.286;10.434;2022-08-25T01:18:19;7.65;;;4.30;;
73557;SDS011;61829;53.286;10.434;2022-08-25T01:20:53;8.27;;;4.57;;
73557;SDS011;61829;53.286;10.434;2022-08-25T01:23:23;5.65;;;4.28;;
73557;SDS011;61829;53.286;10.434;2022-08-25T01:28:37;6.18;;;4.22;;
73557;SDS011;61829;53.286;10.434;2022-08-25T01:31:26;6.60;;;4.60;;
73557;SDS011;61829;53.286;10.434;2022-08-25T01:33:53;6.88;;;4.30;;
73557;SDS011;61829;53.286;10.434;2022-08-25T01:38:46;6.28;;;4.72;;
73557;SDS011;61829;53.286;10.434;2022-08-25T01:41:15;7.47;;;4.75;;
73557;SDS011;61829;53.286;10.434;2022-08-25T01:44:04;7.88;;;4.80;;
73557;SDS011;61829;53.286;10.434;2022-08-25T01:46:33;7.32;;;4.72;;
73557;SDS011;61829;53.286;10.434;2022-08-25T01:49:00;10.10;;;5.50;;
73557;SDS011;61829;53.286;10.434;2022-08-25T01:51:27;8.20;;;4.45;;
73557;SDS011;61829;53.286;10.434;2022-08-25T01:53:58;8.93;;;4.95;;
73557;SDS011;61829;53.286;10.434;2022-08-25T01:56:24;8.95;;;5.00;;
73557;SDS011;61829;53.286;10.434;2022-08-25T01:58:49;8.98;;;5.18;;
73557;SDS011;61829;53.286;10.434;2022-08-25T02:01:18;9.25;;;4.90;;
73557;SDS011;61829;53.286;10.434;2022-08-25T02:03:47;7.72;;;5.05;;
73557;SDS011;61829;53.286;10.434;2022-08-25T02:06:17;8.55;;;4.43;;
73557;SDS011;61829;53.286;10.434;2022-08-25T02:08:54;9.85;;;5.05;;
73557;SDS011;61829;53.286;10.434;2022-08-25T02:11:23;7.40;;;4.65;;
73557;SDS011;61829;53.286;10.434;2022-08-25T02:13:50;6.60;;;4.72;;
73557;SDS011;61829;53.286;10.434;2022-08-25T02:16:22;8.60;;;4.93;;
73557;SDS011;61829;53.286;10.434;2022-08-25T02:19:00;7.72;;;4.82;;
73557;SDS011;61829;53.286;10.434;2022-08-25T02:21:26;7.13;;;4.43;;
73557;SDS011;61829;53.286;10.434;2022-08-25T02:23:52;10.15;;;4.43;;
73557;SDS011;61829;53.286;10.434;2022-08-25T02:26:19;8.38;;;4.85;;
73557;SDS011;61829;53.286;10.434;2022-08-25T02:28:46;7.68;;;4.43;;
73557;SDS011;61829;53.286;10.434;2022-08-25T02:31:13;8.10;;;4.78;;
73557;SDS011;61829;53.286;10.434;2022-08-25T02:33:40;6.55;;;4.43;;
73557;SDS011;61829;53.286;10.434;2022-08-25T02:36:06;6.53;;;4.10;;
73557;SDS011;61829;53.286;10.434;2022-08-25T02:38:33;7.88;;;4.93;;
73557;SDS011;61829;53.286;10.434;2022-08-25T02:41:00;6.30;;;4.20;;
73557;SDS011;61829;53.286;10.434;2022-08-25T02:43:32;7.03;;;5.07;;
73557;SDS011;61829;53.286;10.434;2022-08-25T02:45:58;6.78;;;4.90;;
73557;SDS011;61829;53.286;10.434;2022-08-25T02:48:24;8.30;;;4.85;;
73557;SDS011;61829;53.286;10.434;2022-08-25T02:50:51;9.77;;;5.13;;
73557;SDS011;61829;53.286;10.434;2022-08-25T02:53:18;7.50;;;4.65;;
73557;SDS011;61829;53.286;10.434;2022-08-25T02:55:45;9.60;;;5.13;;
73557;SDS011;61829;53.286;10.434;2022-08-25T03:00:38;8.10;;;5.07;;
73557;SDS011;61829;53.286;10.434;2022-08-25T03:03:05;11.07;;;5.60;;
73557;SDS011;61829;53.286;10.434;2022-08-25T03:05:31;10.68;;;5.95;;
73557;SDS011;61829;53.286;10.434;2022-08-25T03:07:57;9.88;;;5.78;;
73557;SDS011;61829;53.286;10.434;2022-08-25T03:10:24;8.73;;;5.38;;
73557;SDS011;61829;53.286;10.434;2022-08-25T03:12:50;10.45;;;6.28;;
73557;SDS011;61829;53.286;10.434;2022-08-25T03:15:19;8.02;;;5.47;;
73557;SDS011;61829;53.286;10.434;2022-08-25T03:17:45;9.18;;;5.40;;
73557;SDS011;61829;53.286;10.434;2022-08-25T03:20:13;8.88;;;6.18;;
73557;SDS011;61829;53.286;10.434;2022-08-25T03:22:40;9.30;;;5.82;;
73557;SDS011;61829;53.286;10.434;2022-08-25T03:27:51;10.93;;;6.15;;
73557;SDS011;61829;53.286;10.434;2022-08-25T03:30:17;11.60;;;6.07;;
73557;SDS011;61829;53.286;10.434;2022-08-25T03:32:43;11.40;;;5.88;;
73557;SDS011;61829;53.286;10.434;2022-08-25T03:35:11;11.55;;;6.13;;
73557;SDS011;61829;53.286;10.434;2022-08-25T03:37:37;15.07;;;6.82;;
73557;SDS011;61829;53.286;10.434;2022-08-25T03:40:04;8.30;;;5.78;;
73557;SDS011;61829;53.286;10.434;2022-08-25T03:42:34;10.30;;;5.80;;
73557;SDS011;61829;53.286;10.434;2022-08-25T03:45:03;9.23;;;6.40;;
73557;SDS011;61829;53.286;10.434;2022-08-25T03:47:29;8.60;;;6.20;;
73557;SDS011;61829;53.286;10.434;2022-08-25T03:49:56;10.63;;;6.38;;
73557;SDS011;61829;53.286;10.434;2022-08-25T03:52:22;13.88;;;6.70;;
73557;SDS011;61829;53.286;10.434;2022-08-25T03:54:48;12.75;;;7.80;;
73557;SDS011;61829;53.286;10.434;2022-08-25T03:57:14;12.77;;;7.22;;
73557;SDS011;61829;53.286;10.434;2022-08-25T03:59:40;14.30;;;7.50;;
73557;SDS011;61829;53.286;10.434;2022-08-25T04:02:06;11.55;;;7.38;;
73557;SDS011;61829;53.286;10.434;2022-08-25T04:04:33;14.70;;;8.02;;
73557;SDS011;61829;53.286;10.434;2022-08-25T04:06:59;13.80;;;7.97;;
73557;SDS011;61829;53.286;10.434;2022-08-25T04:11:52;11.63;;;8.43;;
73557;SDS011;61829;53.286;10.434;2022-08-25T04:14:19;14.48;;;8.68;;
73557;SDS011;61829;53.286;10.434;2022-08-25T04:16:45;12.80;;;9.10;;
73557;SDS011;61829;53.286;10.434;2022-08-25T04:19:12;13.93;;;9.65;;
73557;SDS011;61829;53.286;10.434;2022-08-25T04:21:38;16.83;;;10.15;;
73557;SDS011;61829;53.286;10.434;2022-08-25T04:24:06;15.52;;;10.18;;
73557;SDS011;61829;53.286;10.434;2022-08-25T04:26:35;16.02;;;10.00;;
73557;SDS011;61829;53.286;10.434;2022-08-25T04:29:04;15.05;;;9.35;;
73557;SDS011;61829;53.286;10.434;2022-08-25T04:31:32;12.77;;;8.80;;
73557;SDS011;61829;53.286;10.434;2022-08-25T04:36:26;14.00;;;8.63;;
73557;SDS011;61829;53.286;10.434;2022-08-25T04:38:52;15.00;;;8.77;;
73557;SDS011;61829;53.286;10.434;2022-08-25T04:41:20;14.43;;;9.52;;
73557;SDS011;61829;53.286;10.434;2022-08-25T04:43:48;15.40;;;8.88;;
73557;SDS011;61829;53.286;10.434;2022-08-25T04:48:42;16.08;;;9.82;;
73557;SDS011;61829;53.286;10.434;2022-08-25T04:51:09;16.70;;;8.80;;
73557;SDS011;61829;53.286;10.434;2022-08-25T04:53:38;21.10;;;9.55;;
73557;SDS011;61829;53.286;10.434;2022-08-25T04:56:06;14.77;;;9.00;;
73557;SDS011;61829;53.286;10.434;2022-08-25T04:58:34;18.42;;;9.73;;
73557;SDS011;61829;53.286;10.434;2022-08-25T05:01:05;19.08;;;9.63;;
73557;SDS011;61829;53.286;10.434;2022-08-25T05:03:37;22.40;;;9.20;;
73557;SDS011;61829;53.286;10.434;2022-08-25T05:06:06;50.50;;;9.80;;
73557;SDS011;61829;53.286;10.434;2022-08-25T05:11:09;40.13;;;10.95;;
73557;SDS011;61829;53.286;10.434;2022-08-25T05:13:42;38.60;;;10.50;;
73557;SDS011;61829;53.286;10.434;2022-08-25T05:16:09;26.95;;;8.25;;
73557;SDS011;61829;53.286;10.434;2022-08-25T05:18:35;33.65;;;8.68;;
73557;SDS011;61829;53.286;10.434;2022-08-25T05:21:02;24.48;;;8.40;;
73557;SDS011;61829;53.286;10.434;2022-08-25T05:23:31;24.42;;;10.65;;
73557;SDS011;61829;53.286;10.434;2022-08-25T05:26:00;20.65;;;8.98;;
73557;SDS011;61829;53.286;10.434;2022-08-25T05:28:29;22.55;;;9.50;;
73557;SDS011;61829;53.286;10.434;2022-08-25T05:30:56;18.25;;;8.27;;
73557;SDS011;61829;53.286;10.434;2022-08-25T05:33:24;30.02;;;8.48;;
73557;SDS011;61829;53.286;10.434;2022-08-25T05:35:50;19.70;;;9.75;;
73557;SDS011;61829;53.286;10.434;2022-08-25T05:38:17;25.08;;;9.00;;
73557;SDS011;61829;53.286;10.434;2022-08-25T05:40:43;25.38;;;9.55;;
73557;SDS011;61829;53.286;10.434;2022-08-25T05:43:09;19.50;;;9.73;;
73557;SDS011;61829;53.286;10.434;2022-08-25T05:45:35;20.33;;;9.38;;
73557;SDS011;61829;53.286;10.434;2022-08-25T05:48:02;26.20;;;9.77;;
73557;SDS011;61829;53.286;10.434;2022-08-25T05:50:28;25.48;;;9.38;;
73557;SDS011;61829;53.286;10.434;2022-08-25T05:52:54;24.40;;;9.43;;
73557;SDS011;61829;53.286;10.434;2022-08-25T05:55:20;18.65;;;9.43;;
73557;SDS011;61829;53.286;10.434;2022-08-25T05:57:46;18.60;;;9.55;;
73557;SDS011;61829;53.286;10.434;2022-08-25T06:00:13;23.52;;;8.98;;
73557;SDS011;61829;53.286;10.434;2022-08-25T06:02:39;17.85;;;9.35;;
73557;SDS011;61829;53.286;10.434;2022-08-25T06:05:10;23.63;;;9.75;;
73557;SDS011;61829;53.286;10.434;2022-08-25T06:07:44;19.05;;;9.70;;
73557;SDS011;61829;53.286;10.434;2022-08-25T06:10:12;19.48;;;10.55;;
73557;SDS011;61829;53.286;10.434;2022-08-25T06:12:39;25.52;;;10.23;;
73557;SDS011;61829;53.286;10.434;2022-08-25T06:15:11;16.42;;;9.95;;
73557;SDS011;61829;53.286;10.434;2022-08-25T06:17:41;28.55;;;10.15;;
73557;SDS011;61829;53.286;10.434;2022-08-25T06:20:08;15.38;;;9.73;;
73557;SDS011;61829;53.286;10.434;2022-08-25T06:22:36;14.18;;;9.27;;
73557;SDS011;61829;53.286;10.434;2022-08-25T06:25:03;18.10;;;10.85;;
73557;SDS011;61829;53.286;10.434;2022-08-25T06:27:33;20.65;;;10.55;;
73557;SDS011;61829;53.286;10.434;2022-08-25T06:29:59;20.88;;;11.00;;
73557;SDS011;61829;53.286;10.434;2022-08-25T06:32:30;21.10;;;10.48;;
73557;SDS011;61829;53.286;10.434;2022-08-25T06:34:57;18.70;;;10.32;;
73557;SDS011;61829;53.286;10.434;2022-08-25T06:37:24;16.98;;;11.07;;
73557;SDS011;61829;53.286;10.434;2022-08-25T06:39:50;20.77;;;11.35;;
73557;SDS011;61829;53.286;10.434;2022-08-25T06:42:16;18.40;;;10.75;;
73557;SDS011;61829;53.286;10.434;2022-08-25T06:44:43;19.85;;;10.90;;
73557;SDS011;61829;53.286;10.434;2022-08-25T06:47:09;19.30;;;11.57;;
73557;SDS011;61829;53.286;10.434;2022-08-25T06:49:36;16.13;;;10.15;;
73557;SDS011;61829;53.286;10.434;2022-08-25T06:52:02;19.15;;;12.20;;
73557;SDS011;61829;53.286;10.434;2022-08-25T06:54:29;20.63;;;10.52;;
73557;SDS011;61829;53.286;10.434;2022-08-25T06:56:54;19.65;;;10.80;;
73557;SDS011;61829;53.286;10.434;2022-08-25T06:59:21;24.45;;;11.02;;
73557;SDS011;61829;53.286;10.434;2022-08-25T07:01:47;18.02;;;10.55;;
73557;SDS011;61829;53.286;10.434;2022-08-25T07:04:13;16.35;;;10.57;;
73557;SDS011;61829;53.286;10.434;2022-08-25T07:06:39;20.00;;;12.02;;
73557;SDS011;61829;53.286;10.434;2022-08-25T07:09:06;22.45;;;12.40;;
73557;SDS011;61829;53.286;10.434;2022-08-25T07:11:35;16.48;;;10.60;;
73557;SDS011;61829;53.286;10.434;2022-08-25T07:14:03;19.55;;;11.10;;
73557;SDS011;61829;53.286;10.434;2022-08-25T07:16:30;22.02;;;11.95;;
73557;SDS011;61829;53.286;10.434;2022-08-25T07:18:58;20.85;;;12.88;;
73557;SDS011;61829;53.286;10.434;2022-08-25T07:21:26;25.55;;;12.38;;
73557;SDS011;61829;53.286;10.434;2022-08-25T07:23:53;18.83;;;12.40;;
73557;SDS011;61829;53.286;10.434;2022-08-25T07:26:21;21.65;;;13.13;;
73557;SDS011;61829;53.286;10.434;2022-08-25T07:28:50;21.92;;;12.82;;
73557;SDS011;61829;53.286;10.434;2022-08-25T07:31:16;24.42;;;13.70;;
73557;SDS011;61829;53.286;10.434;2022-08-25T07:33:43;24.35;;;13.75;;
73557;SDS011;61829;53.286;10.434;2022-08-25T07:36:28;20.10;;;13.13;;
73557;SDS011;61829;53.286;10.434;2022-08-25T07:38:58;17.40;;;12.15;;
73557;SDS011;61829;53.286;10.434;2022-08-25T07:41:25;20.60;;;12.90;;
73557;SDS011;61829;53.286;10.434;2022-08-25T07:43:51;19.77;;;13.13;;
73557;SDS011;61829;53.286;10.434;2022-08-25T07:46:17;19.90;;;11.90;;
73557;SDS011;61829;53.286;10.434;2022-08-25T07:48:44;21.33;;;13.00;;
73557;SDS011;61829;53.286;10.434;2022-08-25T07:51:11;19.15;;;12.90;;
73557;SDS011;61829;53.286;10.434;2022-08-25T07:53:38;19.30;;;12.05;;
73557;SDS011;61829;53.286;10.434;2022-08-25T07:56:11;22.35;;;13.02;;
73557;SDS011;61829;53.286;10.434;2022-08-25T07:58:41;21.80;;;13.85;;
73557;SDS011;61829;53.286;10.434;2022-08-25T08:01:18;22.40;;;14.00;;
73557;SDS011;61829;53.286;10.434;2022-08-25T08:03:47;25.55;;;14.45;;
73557;SDS011;61829;53.286;10.434;2022-08-25T08:06:14;20.10;;;13.10;;
73557;SDS011;61829;53.286;10.434;2022-08-25T08:08:42;23.30;;;13.52;;
73557;SDS011;61829;53.286;10.434;2022-08-25T08:11:21;22.98;;;14.15;;
73557;SDS011;61829;53.286;10.434;2022-08-25T08:13:52;24.23;;;13.77;;
73557;SDS011;61829;53.286;10.434;2022-08-25T08:16:20;23.02;;;14.52;;
73557;SDS011;61829;53.286;10.434;2022-08-25T08:18:48;29.33;;;15.95;;
73557;SDS011;61829;53.286;10.434;2022-08-25T08:21:16;26.73;;;15.73;;
73557;SDS011;61829;53.286;10.434;2022-08-25T08:26:14;24.95;;;13.05;;
73557;SDS011;61829;53.286;10.434;2022-08-25T08:28:40;23.80;;;14.88;;
73557;SDS011;61829;53.286;10.434;2022-08-25T08:31:09;23.20;;;15.45;;
73557;SDS011;61829;53.286;10.434;2022-08-25T08:33:36;23.48;;;15.05;;
73557;SDS011;61829;53.286;10.434;2022-08-25T08:38:33;21.52;;;13.95;;
73557;SDS011;61829;53.286;10.434;2022-08-25T08:44:44;27.83;;;14.68;;
73557;SDS011;61829;53.286;10.434;2022-08-25T08:47:24;24.83;;;15.50;;
73557;SDS011;61829;53.286;10.434;2022-08-25T08:52:56;22.60;;;14.85;;
73557;SDS011;61829;53.286;10.434;2022-08-25T08:58:45;22.67;;;13.52;;
73557;SDS011;61829;53.286;10.434;2022-08-25T09:01:16;26.15;;;15.15;;
73557;SDS011;61829;53.286;10.434;2022-08-25T09:03:57;25.08;;;15.18;;
73557;SDS011;61829;53.286;10.434;2022-08-25T09:06:37;25.92;;;15.35;;
73557;SDS011;61829;53.286;10.434;2022-08-25T09:09:07;19.02;;;13.88;;
73557;SDS011;61829;53.286;10.434;2022-08-25T09:19:48;23.13;;;12.82;;
73557;SDS011;61829;53.286;10.434;2022-08-25T09:30:59;12.43;;;10.38;;
73557;SDS011;61829;53.286;10.434;2022-08-25T09:33:44;16.23;;;12.25;;
73557;SDS011;61829;53.286;10.434;2022-08-25T09:36:12;20.60;;;11.38;;
73557;SDS011;61829;53.286;10.434;2022-08-25T09:38:38;17.58;;;10.77;;
73557;SDS011;61829;53.286;10.434;2022-08-25T09:41:05;15.15;;;10.57;;
73557;SDS011;61829;53.286;10.434;2022-08-25T09:43:34;15.80;;;10.30;;
73557;SDS011;61829;53.286;10.434;2022-08-25T09:48:47;14.02;;;9.57;;
73557;SDS011;61829;53.286;10.434;2022-08-25T09:53:49;10.88;;;7.45;;
73557;SDS011;61829;53.286;10.434;2022-08-25T09:56:19;13.35;;;8.52;;
73557;SDS011;61829;53.286;10.434;2022-08-25T09:58:49;11.40;;;7.88;;
73557;SDS011;61829;53.286;10.434;2022-08-25T10:06:29;10.43;;;5.30;;
73557;SDS011;61829;53.286;10.434;2022-08-25T10:09:05;9.50;;;4.80;;
73557;SDS011;61829;53.286;10.434;2022-08-25T10:14:14;11.07;;;5.13;;
73557;SDS011;61829;53.286;10.434;2022-08-25T10:16:45;8.48;;;4.57;;
73557;SDS011;61829;53.286;10.434;2022-08-25T10:19:26;8.55;;;4.03;;
73557;SDS011;61829;53.286;10.434;2022-08-25T10:22:03;7.07;;;5.00;;
73557;SDS011;61829;53.286;10.434;2022-08-25T10:24:32;7.90;;;4.20;;
73557;SDS011;61829;53.286;10.434;2022-08-25T10:29:52;10.35;;;4.10;;
73557;SDS011;61829;53.286;10.434;2022-08-25T10:35:25;7.53;;;3.92;;
73557;SDS011;61829;53.286;10.434;2022-08-25T10:41:16;6.70;;;3.90;;
73557;SDS011;61829;53.286;10.434;2022-08-25T10:47:21;7.05;;;4.20;;
73557;SDS011;61829;53.286;10.434;2022-08-25T10:50:00;5.97;;;3.75;;
73557;SDS011;61829;53.286;10.434;2022-08-25T10:55:17;6.53;;;3.50;;
73557;SDS011;61829;53.286;10.434;2022-08-25T10:57:53;5.65;;;3.60;;
73557;SDS011;61829;53.286;10.434;2022-08-25T11:00:21;9.77;;;4.10;;
73557;SDS011;61829;53.286;10.434;2022-08-25T11:10:40;8.40;;;3.90;;
73557;SDS011;61829;53.286;10.434;2022-08-25T11:13:19;7.22;;;3.70;;
73557;SDS011;61829;53.286;10.434;2022-08-25T11:15:52;7.90;;;3.72;;
73557;SDS011;61829;53.286;10.434;2022-08-25T11:18:25;7.70;;;4.35;;
73557;SDS011;61829;53.286;10.434;2022-08-25T11:21:06;7.57;;;4.07;;
73557;SDS011;61829;53.286;10.434;2022-08-25T11:26:12;7.35;;;3.83;;
73557;SDS011;61829;53.286;10.434;2022-08-25T11:34:07;8.90;;;4.35;;
73557;SDS011;61829;53.286;10.434;2022-08-25T11:36:39;7.97;;;4.00;;
73557;SDS011;61829;53.286;10.434;2022-08-25T11:48:19;8.25;;;4.88;;
73557;SDS011;61829;53.286;10.434;2022-08-25T11:56:00;7.05;;;3.90;;
73557;SDS011;61829;53.286;10.434;2022-08-25T11:58:41;7.95;;;4.35;;
73557;SDS011;61829;53.286;10.434;2022-08-25T12:09:32;9.25;;;4.20;;
73557;SDS011;61829;53.286;10.434;2022-08-25T12:12:00;6.28;;;4.50;;
73557;SDS011;61829;53.286;10.434;2022-08-25T12:14:50;9.52;;;4.40;;
73557;SDS011;61829;53.286;10.434;2022-08-25T12:17:20;6.15;;;3.53;;
73557;SDS011;61829;53.286;10.434;2022-08-25T12:19:56;7.53;;;3.83;;
73557;SDS011;61829;53.286;10.434;2022-08-25T12:24:52;6.35;;;3.60;;
73557;SDS011;61829;53.286;10.434;2022-08-25T12:30:27;7.38;;;4.03;;
73557;SDS011;61829;53.286;10.434;2022-08-25T12:35:58;7.22;;;3.97;;
73557;SDS011;61829;53.286;10.434;2022-08-25T12:43:40;9.15;;;4.13;;
73557;SDS011;61829;53.286;10.434;2022-08-25T12:48:58;6.65;;;3.50;;
73557;SDS011;61829;53.286;10.434;2022-08-25T12:51:59;4.65;;;3.40;;
73557;SDS011;61829;53.286;10.434;2022-08-25T12:57:32;8.18;;;3.55;;
73557;SDS011;61829;53.286;10.434;2022-08-25T13:00:26;7.75;;;3.78;;
73557;SDS011;61829;53.286;10.434;2022-08-25T13:05:34;6.57;;;3.60;;
73557;SDS011;61829;53.286;10.434;2022-08-25T13:14:22;8.63;;;3.88;;
73557;SDS011;61829;53.286;10.434;2022-08-25T13:16:59;6.63;;;3.53;;
73557;SDS011;61829;53.286;10.434;2022-08-25T13:19:26;4.47;;;3.60;;
73557;SDS011;61829;53.286;10.434;2022-08-25T13:21:53;5.32;;;3.45;;
73557;SDS011;61829;53.286;10.434;2022-08-25T13:24:25;9.32;;;3.45;;
73557;SDS011;61829;53.286;10.434;2022-08-25T13:26:55;5.28;;;3.50;;
73557;SDS011;61829;53.286;10.434;2022-08-25T13:29:26;6.75;;;3.58;;
73557;SDS011;61829;53.286;10.434;2022-08-25T13:31:57;8.57;;;3.35;;
73557;SDS011;61829;53.286;10.434;2022-08-25T13:34:33;4.75;;;3.50;;
73557;SDS011;61829;53.286;10.434;2022-08-25T13:42:38;6.68;;;3.63;;
73557;SDS011;61829;53.286;10.434;2022-08-25T13:45:05;7.43;;;3.28;;
73557;SDS011;61829;53.286;10.434;2022-08-25T13:47:34;6.68;;;3.65;;
73557;SDS011;61829;53.286;10.434;2022-08-25T13:50:47;5.68;;;3.58;;
73557;SDS011;61829;53.286;10.434;2022-08-25T13:52:56;8.80;;;3.60;;
73557;SDS011;61829;53.286;10.434;2022-08-25T13:58:20;6.28;;;3.28;;
73557;SDS011;61829;53.286;10.434;2022-08-25T14:00:59;9.65;;;3.90;;
73557;SDS011;61829;53.286;10.434;2022-08-25T14:03:37;5.97;;;3.38;;
73557;SDS011;61829;53.286;10.434;2022-08-25T14:06:07;7.90;;;3.47;;
73557;SDS011;61829;53.286;10.434;2022-08-25T14:08:35;6.82;;;3.50;;
73557;SDS011;61829;53.286;10.434;2022-08-25T14:13:36;8.05;;;3.88;;
73557;SDS011;61829;53.286;10.434;2022-08-25T14:16:08;5.45;;;4.00;;
73557;SDS011;61829;53.286;10.434;2022-08-25T14:18:38;7.55;;;3.78;;
73557;SDS011;61829;53.286;10.434;2022-08-25T14:21:11;7.85;;;3.92;;
73557;SDS011;61829;53.286;10.434;2022-08-25T14:23:38;9.57;;;3.60;;
73557;SDS011;61829;53.286;10.434;2022-08-25T14:26:04;7.80;;;3.78;;
73557;SDS011;61829;53.286;10.434;2022-08-25T14:28:30;9.20;;;3.67;;
73557;SDS011;61829;53.286;10.434;2022-08-25T14:30:59;5.82;;;3.42;;
73557;SDS011;61829;53.286;10.434;2022-08-25T14:33:32;8.93;;;3.80;;
73557;SDS011;61829;53.286;10.434;2022-08-25T14:36:04;6.47;;;3.47;;
73557;SDS011;61829;53.286;10.434;2022-08-25T14:38:32;7.68;;;3.60;;
73557;SDS011;61829;53.286;10.434;2022-08-25T14:40:59;7.85;;;3.50;;
73557;SDS011;61829;53.286;10.434;2022-08-25T14:43:26;9.23;;;3.58;;
73557;SDS011;61829;53.286;10.434;2022-08-25T14:45:52;6.43;;;3.42;;
73557;SDS011;61829;53.286;10.434;2022-08-25T14:48:27;10.02;;;3.50;;
73557;SDS011;61829;53.286;10.434;2022-08-25T14:51:00;5.28;;;3.58;;
73557;SDS011;61829;53.286;10.434;2022-08-25T14:53:28;6.30;;;3.42;;
73557;SDS011;61829;53.286;10.434;2022-08-25T14:55:54;7.55;;;3.30;;
73557;SDS011;61829;53.286;10.434;2022-08-25T14:58:22;7.00;;;3.50;;
73557;SDS011;61829;53.286;10.434;2022-08-25T15:00:49;8.38;;;3.58;;
73557;SDS011;61829;53.286;10.434;2022-08-25T15:03:20;7.28;;;3.70;;
73557;SDS011;61829;53.286;10.434;2022-08-25T15:05:55;8.75;;;3.72;;
73557;SDS011;61829;53.286;10.434;2022-08-25T15:08:24;10.40;;;3.63;;
73557;SDS011;61829;53.286;10.434;2022-08-25T15:11:09;8.82;;;3.60;;
73557;SDS011;61829;53.286;10.434;2022-08-25T15:13:35;9.30;;;3.72;;
73557;SDS011;61829;53.286;10.434;2022-08-25T15:16:01;8.52;;;3.63;;
73557;SDS011;61829;53.286;10.434;2022-08-25T15:18:28;6.95;;;3.70;;
73557;SDS011;61829;53.286;10.434;2022-08-25T15:20:54;6.38;;;3.58;;
73557;SDS011;61829;53.286;10.434;2022-08-25T15:23:22;7.90;;;3.72;;
73557;SDS011;61829;53.286;10.434;2022-08-25T15:25:48;7.68;;;3.80;;
73557;SDS011;61829;53.286;10.434;2022-08-25T15:28:15;22.10;;;6.57;;
73557;SDS011;61829;53.286;10.434;2022-08-25T15:30:43;9.63;;;3.85;;
73557;SDS011;61829;53.286;10.434;2022-08-25T15:33:09;9.32;;;4.07;;
73557;SDS011;61829;53.286;10.434;2022-08-25T15:35:35;7.93;;;4.13;;
73557;SDS011;61829;53.286;10.434;2022-08-25T15:38:01;5.50;;;3.45;;
73557;SDS011;61829;53.286;10.434;2022-08-25T15:40:28;8.18;;;3.90;;
73557;SDS011;61829;53.286;10.434;2022-08-25T15:42:54;6.63;;;3.58;;
73557;SDS011;61829;53.286;10.434;2022-08-25T15:45:20;8.77;;;3.60;;
73557;SDS011;61829;53.286;10.434;2022-08-25T15:47:46;7.60;;;4.50;;
73557;SDS011;61829;53.286;10.434;2022-08-25T15:50:14;8.40;;;3.63;;
73557;SDS011;61829;53.286;10.434;2022-08-25T15:52:46;7.75;;;3.95;;
73557;SDS011;61829;53.286;10.434;2022-08-25T15:55:13;5.32;;;3.40;;
73557;SDS011;61829;53.286;10.434;2022-08-25T15:57:41;7.53;;;4.07;;
73557;SDS011;61829;53.286;10.434;2022-08-25T16:02:37;6.35;;;3.95;;
73557;SDS011;61829;53.286;10.434;2022-08-25T16:05:05;6.88;;;3.60;;
73557;SDS011;61829;53.286;10.434;2022-08-25T16:07:32;7.13;;;4.03;;
73557;SDS011;61829;53.286;10.434;2022-08-25T16:09:59;6.28;;;3.63;;
73557;SDS011;61829;53.286;10.434;2022-08-25T16:12:25;8.77;;;3.78;;
73557;SDS011;61829;53.286;10.434;2022-08-25T16:14:51;7.10;;;3.70;;
73557;SDS011;61829;53.286;10.434;2022-08-25T16:17:18;7.38;;;4.15;;
73557;SDS011;61829;53.286;10.434;2022-08-25T16:22:10;7.05;;;3.53;;
73557;SDS011;61829;53.286;10.434;2022-08-25T16:24:38;8.38;;;3.55;;
73557;SDS011;61829;53.286;10.434;2022-08-25T16:27:05;8.23;;;4.10;;
73557;SDS011;61829;53.286;10.434;2022-08-25T16:29:33;8.02;;;3.70;;
73557;SDS011;61829;53.286;10.434;2022-08-25T16:32:02;13.07;;;4.10;;
73557;SDS011;61829;53.286;10.434;2022-08-25T16:34:29;7.20;;;4.10;;
73557;SDS011;61829;53.286;10.434;2022-08-25T16:36:58;6.90;;;3.60;;
73557;SDS011;61829;53.286;10.434;2022-08-25T16:39:24;5.28;;;3.50;;
73557;SDS011;61829;53.286;10.434;2022-08-25T16:41:51;7.82;;;3.67;;
73557;SDS011;61829;53.286;10.434;2022-08-25T16:44:18;6.70;;;3.63;;
73557;SDS011;61829;53.286;10.434;2022-08-25T16:46:48;7.78;;;3.97;;
73557;SDS011;61829;53.286;10.434;2022-08-25T16:49:14;6.07;;;3.53;;
73557;SDS011;61829;53.286;10.434;2022-08-25T16:51:41;6.85;;;4.15;;
73557;SDS011;61829;53.286;10.434;2022-08-25T16:54:08;5.47;;;4.03;;
73557;SDS011;61829;53.286;10.434;2022-08-25T16:56:54;7.97;;;3.85;;
73557;SDS011;61829;53.286;10.434;2022-08-25T16:59:22;5.80;;;3.80;;
73557;SDS011;61829;53.286;10.434;2022-08-25T17:01:49;7.63;;;3.53;;
73557;SDS011;61829;53.286;10.434;2022-08-25T17:04:17;6.05;;;4.00;;
73557;SDS011;61829;53.286;10.434;2022-08-25T17:06:43;6.55;;;3.30;;
73557;SDS011;61829;53.286;10.434;2022-08-25T17:09:11;7.53;;;3.47;;
73557;SDS011;61829;53.286;10.434;2022-08-25T17:11:39;9.15;;;3.85;;
73557;SDS011;61829;53.286;10.434;2022-08-25T17:16:39;8.30;;;3.78;;
73557;SDS011;61829;53.286;10.434;2022-08-25T17:19:06;8.40;;;3.88;;
73557;SDS011;61829;53.286;10.434;2022-08-25T17:21:36;8.55;;;4.32;;
73557;SDS011;61829;53.286;10.434;2022-08-25T17:24:04;8.20;;;3.80;;
73557;SDS011;61829;53.286;10.434;2022-08-25T17:26:31;6.03;;;3.90;;